Time;durP1;ratioP1;P1;durP2;ratioP2;P2;SDS_P1;SDS_P2;PMS_P1;PMS_P2;Temp;Humidity;BMP_temperature;BMP_pressure;BME280_temperature;BME280_humidity;BME280_pressure;Samples;Min_cycle;Max_cycle;Signal;HPM_P1;HPM_P2
2023/10/24 00:02:58;;;;;;;;;;;;;;;11.83;100.00;99613.97;5093507;28;19923;-65
2023/10/24 00:06:03;;;;;;;;;;;;;;;11.79;100.00;99630.88;5093869;28;19923;-65
2023/10/24 00:09:06;;;;;;;;;;;;;;;11.78;100.00;99621.34;5094415;28;19931;-65
2023/10/24 00:12:09;;;;;;;;;;;;;;;11.69;100.00;99629.88;5094823;28;19923;-65
2023/10/24 00:15:12;;;;;;;;;;;;;;;11.73;100.00;99623.44;5091563;28;19969;-65
2023/10/24 00:18:15;;;;;;;;;;;;;;;11.67;100.00;99628.28;5093081;28;19923;-65
2023/10/24 00:21:19;;;;;;;;;;;;;;;11.73;100.00;99628.69;5094802;28;19927;-65
2023/10/24 00:24:22;;;;;;;;;;;;;;;11.75;100.00;99633.84;5095438;28;20042;-65
2023/10/24 00:27:25;;;;;;;;;;;;;;;11.84;100.00;99630.56;5095160;28;20065;-65
2023/10/24 00:30:29;;;;;;;;;;;;;;;11.81;100.00;99623.75;5095107;28;19973;-65
2023/10/24 00:33:32;;;;;;;;;;;;;;;11.84;100.00;99626.19;5095050;28;19970;-65
2023/10/24 00:36:35;;;;;;;;;;;;;;;11.83;100.00;99624.47;5094748;28;20378;-64
2023/10/24 00:39:38;;;;;;;;;;;;;;;11.81;100.00;99628.16;5093983;28;19971;-65
2023/10/24 00:42:41;;;;;;;;;;;;;;;11.83;100.00;99623.63;5093396;28;19951;-65
2023/10/24 00:45:45;;;;;;;;;;;;;;;11.84;100.00;99613.09;5094009;28;20054;-65
2023/10/24 00:48:49;;;;;;;;;;;;;;;11.88;100.00;99611.09;5094739;28;19962;-65
2023/10/24 00:51:53;;;;;;;;;;;;;;;11.89;100.00;99614.53;5094926;28;20323;-65
2023/10/24 00:54:56;;;;;;;;;;;;;;;11.83;100.00;99619.22;5093516;28;20489;-65
2023/10/24 00:58:01;;;;;;;;;;;;;;;11.79;100.00;99611.72;5092865;28;19923;-65
2023/10/24 01:01:07;;;;;;;;;;;;;;;11.78;100.00;99616.13;5093448;28;19950;-65
2023/10/24 01:04:10;;;;;;;;;;;;;;;11.84;100.00;99613.09;5094005;28;20280;-64
2023/10/24 01:07:13;;;;;;;;;;;;;;;11.75;100.00;99624.19;5093426;28;19922;-64
2023/10/24 01:10:16;;;;;;;;;;;;;;;11.74;100.00;99622.53;5093761;28;19970;-65
2023/10/24 01:13:19;;;;;;;;;;;;;;;11.76;100.00;99607.53;5093401;28;20398;-65
2023/10/24 01:16:22;;;;;;;;;;;;;;;11.79;100.00;99602.06;5094413;28;20353;-64
2023/10/24 01:19:26;;;;;;;;;;;;;;;11.81;100.00;99584.47;5093647;28;19977;-64
2023/10/24 01:22:29;;;;;;;;;;;;;;;11.76;100.00;99576.09;5093708;28;20386;-64
2023/10/24 01:25:34;;;;;;;;;;;;;;;11.51;100.00;99577.00;5093296;28;20394;-65
2023/10/24 01:28:37;;;;;;;;;;;;;;;11.59;100.00;99595.63;5093948;28;19923;-65
2023/10/24 01:31:40;;;;;;;;;;;;;;;11.44;100.00;99601.13;5093897;28;19927;-65
2023/10/24 01:34:43;;;;;;;;;;;;;;;11.49;100.00;99604.28;5093695;28;19927;-64
2023/10/24 01:37:47;;;;;;;;;;;;;;;11.60;100.00;99588.63;5092524;28;19923;-65
2023/10/24 01:40:50;;;;;;;;;;;;;;;11.66;100.00;99592.59;5093298;28;20348;-65
2023/10/24 01:43:54;;;;;;;;;;;;;;;11.63;100.00;99601.50;5093813;28;19923;-65
2023/10/24 01:46:57;;;;;;;;;;;;;;;11.64;100.00;99597.91;5092911;28;20410;-65
2023/10/24 01:49:59;;;;;;;;;;;;;;;11.63;100.00;99591.03;5093674;28;19923;-65
2023/10/24 01:53:02;;;;;;;;;;;;;;;11.65;100.00;99599.63;5092582;28;19923;-65
2023/10/24 01:56:06;;;;;;;;;;;;;;;11.54;100.00;99583.81;5092825;28;19938;-65
2023/10/24 01:59:08;;;;;;;;;;;;;;;11.41;100.00;99586.47;5092762;28;19923;-65
2023/10/24 02:02:12;;;;;;;;;;;;;;;11.56;100.00;99574.91;5092587;28;19942;-65
2023/10/24 02:05:14;;;;;;;;;;;;;;;11.62;100.00;99576.25;5092432;28;19927;-65
2023/10/24 02:08:17;;;;;;;;;;;;;;;11.61;100.00;99578.06;5093376;28;19961;-65
2023/10/24 02:11:20;;;;;;;;;;;;;;;11.65;100.00;99594.38;5092606;28;19930;-65
2023/10/24 02:14:23;;;;;;;;;;;;;;;11.69;100.00;99580.09;5092615;28;20045;-65
2023/10/24 02:17:27;;;;;;;;;;;;;;;11.65;100.00;99565.56;5093096;28;20010;-65
2023/10/24 02:20:30;;;;;;;;;;;;;;;11.72;100.00;99556.31;5093038;28;20018;-65
2023/10/24 02:23:35;;;;;;;;;;;;;;;11.73;100.00;99559.78;5093501;28;19923;-65
2023/10/24 02:26:38;;;;;;;;;;;;;;;11.55;100.00;99567.16;5093232;28;19969;-65
2023/10/24 02:29:41;;;;;;;;;;;;;;;11.58;100.00;99577.41;5092864;28;20018;-65
2023/10/24 02:32:44;;;;;;;;;;;;;;;11.66;100.00;99585.56;5092274;28;19922;-65
2023/10/24 02:35:47;;;;;;;;;;;;;;;11.55;100.00;99572.38;5092061;28;20386;-65
2023/10/24 02:38:50;;;;;;;;;;;;;;;11.55;100.00;99573.25;5091737;28;20389;-65
2023/10/24 02:41:53;;;;;;;;;;;;;;;11.66;100.00;99567.22;5092017;28;20394;-65
2023/10/24 02:44:56;;;;;;;;;;;;;;;11.71;100.00;99565.13;5092994;28;19938;-65
2023/10/24 02:47:59;;;;;;;;;;;;;;;11.71;100.00;99573.00;5092678;28;19973;-65
2023/10/24 02:51:02;;;;;;;;;;;;;;;11.71;100.00;99575.59;5092541;28;19969;-65
2023/10/24 02:54:05;;;;;;;;;;;;;;;11.74;100.00;99582.38;5091643;28;20352;-65
2023/10/24 02:57:09;;;;;;;;;;;;;;;11.73;100.00;99571.06;5091989;28;19962;-65
2023/10/24 03:00:12;;;;;;;;;;;;;;;11.74;100.00;99580.63;5090802;28;19973;-65
2023/10/24 03:03:15;;;;;;;;;;;;;;;11.76;100.00;99576.09;5091132;28;19923;-65
2023/10/24 03:06:19;;;;;;;;;;;;;;;11.73;100.00;99581.56;5092364;28;20339;-65
2023/10/24 03:09:22;;;;;;;;;;;;;;;11.78;100.00;99582.06;5092084;28;20386;-65
2023/10/24 03:12:25;;;;;;;;;;;;;;;11.74;100.00;99588.47;5091731;28;19924;-65
2023/10/24 03:15:28;;;;;;;;;;;;;;;11.74;100.00;99574.53;5091360;28;19966;-65
2023/10/24 03:18:33;;;;;;;;;;;;;;;11.74;100.00;99567.53;5092610;28;19923;-65
2023/10/24 03:21:36;;;;;;;;;;;;;;;11.75;100.00;99556.09;5092495;28;19973;-65
2023/10/24 03:24:39;;;;;;;;;;;;;;;11.75;100.00;99571.81;5092479;28;20007;-65
2023/10/24 03:27:42;;;;;;;;;;;;;;;11.68;100.00;99560.13;5092420;28;19923;-65
2023/10/24 03:30:48;;;;;;;;;;;;;;;11.51;100.00;99591.88;5092292;28;20394;-65
2023/10/24 03:33:51;;;;;;;;;;;;;;;11.53;100.00;99590.00;5092564;28;20348;-65
2023/10/24 03:36:54;;;;;;;;;;;;;;;11.60;100.00;99580.75;5091566;28;20015;-65
2023/10/24 03:39:56;;;;;;;;;;;;;;;11.71;100.00;99593.94;5092034;28;20529;-65
2023/10/24 03:42:59;;;;;;;;;;;;;;;11.73;100.00;99586.78;5092471;28;20058;-65
2023/10/24 03:46:06;;;;;;;;;;;;;;;11.64;100.00;99583.03;5091295;28;19923;-65
2023/10/24 03:49:09;;;;;;;;;;;;;;;11.72;100.00;99584.28;5091912;28;20019;-64
2023/10/24 03:52:12;;;;;;;;;;;;;;;11.78;100.00;99589.94;5095900;28;19938;-65
2023/10/24 03:55:15;;;;;;;;;;;;;;;11.78;100.00;99589.09;5095947;28;19966;-65
2023/10/24 03:58:17;;;;;;;;;;;;;;;11.76;100.00;99597.03;5094989;28;19982;-65
2023/10/24 04:01:20;;;;;;;;;;;;;;;11.77;100.00;99583.03;5094427;28;19927;-65
2023/10/24 04:04:23;;;;;;;;;;;;;;;11.77;100.00;99577.78;5093908;28;19969;-65
2023/10/24 04:07:26;;;;;;;;;;;;;;;11.78;100.00;99584.69;5092813;28;20295;-65
2023/10/24 04:10:32;;;;;;;;;;;;;;;11.76;100.00;99581.34;5093994;28;19922;-65
2023/10/24 04:13:35;;;;;;;;;;;;;;;11.73;100.00;99586.78;5093367;28;20341;-65
2023/10/24 04:16:38;;;;;;;;;;;;;;;11.61;100.00;99593.75;5093893;28;19961;-65
2023/10/24 04:19:41;;;;;;;;;;;;;;;11.70;100.00;99583.56;5095442;28;20311;-65
2023/10/24 04:22:44;;;;;;;;;;;;;;;11.69;100.00;99585.34;5095264;28;19973;-65
2023/10/24 04:25:47;;;;;;;;;;;;;;;11.70;100.00;99592.25;5095411;28;19923;-65
2023/10/24 04:28:50;;;;;;;;;;;;;;;11.71;100.00;99598.31;5095297;28;20009;-65
2023/10/24 04:31:53;;;;;;;;;;;;;;;11.74;100.00;99591.09;5095616;28;20045;-64
2023/10/24 04:34:56;;;;;;;;;;;;;;;11.74;100.00;99593.72;5094106;28;20303;-65
2023/10/24 04:37:59;;;;;;;;;;;;;;;11.76;100.00;99590.97;5094801;28;20378;-65
2023/10/24 04:41:02;;;;;;;;;;;;;;;11.74;100.00;99571.91;5094961;28;19943;-64
2023/10/24 04:44:05;;;;;;;;;;;;;;;11.75;100.00;99565.75;5095094;28;20010;-64
2023/10/24 04:47:08;;;;;;;;;;;;;;;11.67;100.00;99563.66;5094969;28;19969;-65
2023/10/24 04:50:13;;;;;;;;;;;;;;;11.62;100.00;99565.78;5094845;28;20317;-65
2023/10/24 04:53:16;;;;;;;;;;;;;;;11.56;100.00;99576.69;5094873;28;19923;-64
2023/10/24 04:56:18;;;;;;;;;;;;;;;11.57;100.00;99575.75;5094047;28;20067;-65
2023/10/24 04:59:21;;;;;;;;;;;;;;;11.50;100.00;99566.66;5094778;28;19923;-65
2023/10/24 05:02:25;;;;;;;;;;;;;;;11.52;100.00;99556.91;5094522;28;19969;-64
2023/10/24 05:05:27;;;;;;;;;;;;;;;11.56;100.00;99559.19;5094497;28;19922;-65
2023/10/24 05:08:31;;;;;;;;;;;;;;;11.53;100.00;99558.59;5094493;28;20440;-65
2023/10/24 05:11:36;;;;;;;;;;;;;;;11.44;100.00;99561.88;5094500;28;19966;-65
2023/10/24 05:14:39;;;;;;;;;;;;;;;11.36;100.00;99554.56;5094596;28;19969;-65
2023/10/24 05:17:41;;;;;;;;;;;;;;;11.39;100.00;99551.69;5094352;28;19923;-65
2023/10/24 05:20:45;;;;;;;;;;;;;;;11.48;100.00;99540.56;5094148;28;20143;-65
2023/10/24 05:23:48;;;;;;;;;;;;;;;11.50;100.00;99545.72;5094113;28;19973;-65
2023/10/24 05:26:52;;;;;;;;;;;;;;;11.42;100.00;99535.78;5093777;28;20391;-65
2023/10/24 05:29:55;;;;;;;;;;;;;;;11.42;100.00;99514.84;5093647;28;19931;-65
2023/10/24 05:32:58;;;;;;;;;;;;;;;11.46;100.00;99505.00;5091975;28;20019;-65
2023/10/24 05:36:02;;;;;;;;;;;;;;;11.47;100.00;99504.06;5091690;28;20054;-65
2023/10/24 05:39:05;;;;;;;;;;;;;;;11.43;100.00;99495.59;5091934;28;19927;-65
2023/10/24 05:42:08;;;;;;;;;;;;;;;11.44;100.00;99496.44;5092817;28;19950;-65
2023/10/24 05:45:11;;;;;;;;;;;;;;;11.44;100.00;99493.81;5093000;28;19923;-65
2023/10/24 05:48:14;;;;;;;;;;;;;;;11.43;100.00;99502.63;5093145;28;19927;-65
2023/10/24 05:51:24;;;;;;;;;;;;;;;11.44;100.00;99502.50;5093688;28;20079;-65
2023/10/24 05:54:28;;;;;;;;;;;;;;;11.44;100.00;99493.81;5093566;28;20033;-65
2023/10/24 05:57:30;;;;;;;;;;;;;;;11.39;100.00;99510.69;5093221;28;19923;-65
2023/10/24 06:00:33;;;;;;;;;;;;;;;11.46;100.00;99515.47;5093041;28;20422;-65
2023/10/24 06:03:36;;;;;;;;;;;;;;;11.49;100.00;99525.72;5093468;28;19938;-65
2023/10/24 06:06:39;;;;;;;;;;;;;;;11.53;100.00;99537.66;5093227;28;19961;-65
2023/10/24 06:09:43;;;;;;;;;;;;;;;11.56;100.00;99540.03;5093207;28;19923;-65
2023/10/24 06:12:46;;;;;;;;;;;;;;;11.56;100.00;99540.03;5092893;28;19961;-65
2023/10/24 06:15:49;;;;;;;;;;;;;;;11.46;100.00;99529.41;5093231;28;19923;-65
2023/10/24 06:18:52;;;;;;;;;;;;;;;11.48;100.00;99529.28;5093132;28;20377;-65
2023/10/24 06:21:55;;;;;;;;;;;;;;;11.48;100.00;99529.28;5091113;28;19927;-65
2023/10/24 06:24:58;;;;;;;;;;;;;;;11.49;100.00;99517.88;5089688;28;19976;-65
2023/10/24 06:28:02;;;;;;;;;;;;;;;11.45;100.00;99519.03;5089810;28;19927;-65
2023/10/24 06:31:05;;;;;;;;;;;;;;;11.41;100.00;99524.47;5089614;28;19978;-66
2023/10/24 06:34:10;;;;;;;;;;;;;;;11.44;100.00;99526.06;5089626;28;20392;-66
2023/10/24 06:37:14;;;;;;;;;;;;;;;11.43;100.00;99521.78;5091574;28;19931;-66
2023/10/24 06:40:17;;;;;;;;;;;;;;;11.39;100.00;99518.53;5091891;28;20402;-65
2023/10/24 06:43:22;;;;;;;;;;;;;;;11.35;100.00;99511.81;5091700;28;19922;-65
2023/10/24 06:46:25;;;;;;;;;;;;;;;11.39;100.00;99510.69;5091734;28;19949;-65
2023/10/24 06:49:27;;;;;;;;;;;;;;;11.35;100.00;99498.75;5090823;28;19923;-66
2023/10/24 06:52:30;;;;;;;;;;;;;;;11.34;100.00;99498.88;5089359;28;19923;-66
2023/10/24 06:55:34;;;;;;;;;;;;;;;11.30;100.00;99511.34;5090147;28;20026;-65
2023/10/24 06:58:40;;;;;;;;;;;;;;;11.30;100.00;99511.34;5090696;28;19969;-66
2023/10/24 07:01:43;;;;;;;;;;;;;;;11.17;100.00;99523.63;5091277;28;19989;-66
2023/10/24 07:04:46;;;;;;;;;;;;;;;11.07;100.00;99525.19;5091721;28;19923;-66
2023/10/24 07:07:49;;;;;;;;;;;;;;;11.02;100.00;99524.69;5091303;28;20368;-65
2023/10/24 07:10:52;;;;;;;;;;;;;;;11.11;100.00;99527.50;5090834;28;20263;-66
2023/10/24 07:13:55;;;;;;;;;;;;;;;11.25;100.00;99531.75;5091253;28;19969;-66
2023/10/24 07:16:59;;;;;;;;;;;;;;;11.28;100.00;99521.06;5091272;28;20306;-65
2023/10/24 07:20:02;;;;;;;;;;;;;;;11.36;100.00;99534.47;5090044;28;20283;-66
2023/10/24 07:23:07;;;;;;;;;;;;;;;11.41;100.00;99537.56;5091358;28;19943;-65
2023/10/24 07:26:11;;;;;;;;;;;;;;;11.38;100.00;99529.09;5094873;28;20284;-66
2023/10/24 07:29:14;;;;;;;;;;;;;;;11.26;100.00;99537.81;5095474;28;19976;-70
2023/10/24 07:32:17;;;;;;;;;;;;;;;11.34;100.00;99525.88;5095358;28;20347;-70
2023/10/24 07:35:21;;;;;;;;;;;;;;;11.47;100.00;99527.63;5095219;28;19988;-66
2023/10/24 07:38:24;;;;;;;;;;;;;;;11.47;100.00;99541.53;5081067;28;19927;-66
2023/10/24 07:41:27;;;;;;;;;;;;;;;11.47;100.00;99538.09;5084682;28;19986;-66
2023/10/24 07:44:30;;;;;;;;;;;;;;;11.50;100.00;99537.88;5074682;28;19982;-66
2023/10/24 07:47:33;;;;;;;;;;;;;;;11.51;100.00;99542.16;5074646;28;19955;-66
2023/10/24 07:50:36;;;;;;;;;;;;;;;11.56;100.00;99559.19;5074550;28;19970;-65
2023/10/24 07:53:39;;;;;;;;;;;;;;;11.50;100.00;99564.03;5074312;28;20402;-65
2023/10/24 07:56:43;;;;;;;;;;;;;;;11.38;100.00;99566.56;5074544;28;20060;-66
2023/10/24 07:59:46;;;;;;;;;;;;;;;11.36;100.00;99551.94;5074293;28;19922;-65
2023/10/24 08:02:51;;;;;;;;;;;;;;;11.48;100.00;99548.44;5074488;28;19987;-66
2023/10/24 08:05:54;;;;;;;;;;;;;;;11.59;100.00;99550.31;5074297;28;19955;-67
2023/10/24 08:08:57;;;;;;;;;;;;;;;11.68;100.00;99547.03;5074339;28;20390;-66
2023/10/24 08:12:00;;;;;;;;;;;;;;;11.72;100.00;99538.00;5074425;28;19924;-66
2023/10/24 08:15:04;;;;;;;;;;;;;;;11.78;100.00;99537.53;5074464;28;19924;-66
2023/10/24 08:18:08;;;;;;;;;;;;;;;11.82;100.00;99543.38;5092386;28;19969;-67
2023/10/24 08:21:16;;;;;;;;;;;;;;;11.83;100.00;99548.50;5091492;28;19927;-67
2023/10/24 08:24:21;;;;;;;;;;;;;;;11.78;100.00;99560.28;5093081;28;19966;-67
2023/10/24 08:27:24;;;;;;;;;;;;;;;11.79;100.00;99568.00;5093636;28;20017;-67
2023/10/24 08:30:28;;;;;;;;;;;;;;;11.71;100.00;99565.13;5093485;28;19927;-69
2023/10/24 08:33:33;;;;;;;;;;;;;;;11.75;100.00;99557.88;5094171;28;19973;-67
2023/10/24 08:36:36;;;;;;;;;;;;;;;11.76;100.00;99563.00;5093420;28;19927;-66
2023/10/24 08:39:39;;;;;;;;;;;;;;;11.84;100.00;99565.06;5093939;28;19923;-64
2023/10/24 08:42:42;;;;;;;;;;;;;;;11.86;100.00;99574.50;5094143;28;19927;-69
2023/10/24 08:45:48;;;;;;;;;;;;;;;12.01;100.00;99574.34;5094214;28;20030;-65
2023/10/24 08:48:52;;;;;;;;;;;;;;;12.10;100.00;99573.69;5093821;28;20027;-66
2023/10/24 08:51:55;;;;;;;;;;;;;;;12.18;100.00;99566.06;5093920;28;19938;-66
2023/10/24 08:55:06;;;;;;;;;;;;;;;12.24;100.00;99565.63;5094151;28;20375;-66
2023/10/24 08:58:11;;;;;;;;;;;;;;;12.25;100.00;99566.44;5093484;28;19938;-66
2023/10/24 09:01:14;;;;;;;;;;;;;;;12.25;100.00;99556.81;5094027;28;20029;-66
2023/10/24 09:04:18;;;;;;;;;;;;;;;12.22;100.00;99557.03;5093349;28;19975;-66
2023/10/24 09:07:22;;;;;;;;;;;;;;;12.21;100.00;99550.13;5089639;28;19923;-65
2023/10/24 09:10:25;;;;;;;;;;;;;;;12.23;100.00;99550.00;5089994;28;19985;-66
2023/10/24 09:13:28;;;;;;;;;;;;;;;12.19;100.00;99552.03;5092325;28;19969;-66
2023/10/24 09:16:34;;;;;;;;;;;;;;;12.14;100.00;99543.66;5093428;28;19939;-65
2023/10/24 09:19:41;;;;;;;;;;;;;;;12.17;100.00;99543.44;5092648;28;19939;-65
2023/10/24 09:22:44;;;;;;;;;;;;;;;12.15;100.00;99539.25;5091079;28;20443;-66
2023/10/24 09:25:49;;;;;;;;;;;;;;;12.18;100.00;99541.66;5091748;28;19938;-65
2023/10/24 09:28:57;;;;;;;;;;;;;;;12.28;100.00;99543.50;5092862;28;20006;-65
2023/10/24 09:32:01;;;;;;;;;;;;;;;12.28;100.00;99535.63;5049124;28;19927;-65
2023/10/24 09:35:04;;;;;;;;;;;;;;;12.32;100.00;99537.06;5051630;28;20280;-64
2023/10/24 09:38:08;;;;;;;;;;;;;;;12.32;100.00;99534.44;5051901;28;20360;-66
2023/10/24 09:41:12;;;;;;;;;;;;;;;12.34;100.00;99535.13;5052407;28;19928;-64
2023/10/24 09:44:16;;;;;;;;;;;;;;;12.42;100.00;99531.13;5052525;28;19986;-66
2023/10/24 09:47:20;;;;;;;;;;;;;;;12.40;100.00;99538.25;5051147;28;19943;-66
2023/10/24 09:50:24;;;;;;;;;;;;;;;12.39;100.00;99521.69;5052534;28;19974;-68
2023/10/24 09:53:27;;;;;;;;;;;;;;;12.45;100.00;99517.78;5052478;28;19970;-65
2023/10/24 09:56:31;;;;;;;;;;;;;;;12.47;100.00;99516.69;5052451;28;19925;-64
2023/10/24 09:59:35;;;;;;;;;;;;;;;12.56;100.00;99512.53;5052199;28;19943;-65
2023/10/24 10:02:41;;;;;;;;;;;;;;;12.28;100.00;99519.91;5052409;28;20034;-65
2023/10/24 10:05:48;;;;;;;;;;;;;;;12.39;100.00;99518.25;5052544;28;19968;-65
2023/10/24 10:08:55;;;;;;;;;;;;;;;12.43;100.00;99501.31;5051912;28;19923;-65
2023/10/24 10:12:01;;;;;;;;;;;;;;;12.56;100.00;99510.75;5051910;28;19923;-65
2023/10/24 10:15:07;;;;;;;;;;;;;;;12.71;100.00;99507.91;5051967;28;20019;-65
2023/10/24 10:18:11;;;;;;;;;;;;;;;12.63;100.00;99505.88;5052585;28;19924;-66
2023/10/24 10:21:29;;;;;;;;;;;;;;;12.67;100.00;99503.88;5051763;28;19990;-66
2023/10/24 10:24:52;;;;;;;;;;;;;;;12.85;100.00;99485.84;5051509;28;19924;-66
2023/10/24 10:28:05;;;;;;;;;;;;;;;12.98;100.00;99479.50;5051881;28;19982;-66
2023/10/24 10:31:29;;;;;;;;;;;;;;;13.03;100.00;99468.66;5081887;28;19927;-66
2023/10/24 10:34:36;;;;;;;;;;;;;;;12.99;100.00;99472.50;5091945;28;20018;-67
2023/10/24 10:37:39;;;;;;;;;;;;;;;13.04;100.00;99462.44;5092020;28;19973;-67
2023/10/24 10:40:43;;;;;;;;;;;;;;;13.10;100.00;99456.72;5092201;28;20029;-65
2023/10/24 10:43:53;;;;;;;;;;;;;;;13.03;100.00;99440.63;5091965;28;19950;-67
2023/10/24 10:47:00;;;;;;;;;;;;;;;13.20;100.00;99449.75;5092166;28;19927;-67
2023/10/24 10:50:04;;;;;;;;;;;;;;;13.31;100.00;99441.06;5091765;28;19923;-67
2023/10/24 10:53:27;;;;;;;;;;;;;;;13.36;100.00;99440.69;5091098;28;19923;-66
2023/10/24 10:56:32;;;;;;;;;;;;;;;13.46;100.00;99433.72;5091924;28;20032;-66
2023/10/24 10:59:38;;;;;;;;;;;;;;;13.49;100.00;99433.47;5094870;28;19969;-66
2023/10/24 11:02:59;;;;;;;;;;;;;;;13.46;100.00;99429.34;5096065;28;19985;-67
2023/10/24 11:06:08;;;;;;;;;;;;;;;13.54;100.00;99436.56;5096065;28;19923;-67
2023/10/24 11:09:13;;;;;;;;;;;;;;;13.67;100.00;99424.09;5096054;28;19995;-67
2023/10/24 11:12:30;;;;;;;;;;;;;;;13.75;100.00;99423.44;5096122;28;19973;-67
2023/10/24 11:15:33;;;;;;;;;;;;;;;13.75;100.00;99422.63;5095924;28;19969;-67
2023/10/24 11:18:37;;;;;;;;;;;;;;;13.72;100.00;99408.81;5096111;28;19922;-67
2023/10/24 11:21:40;;;;;;;;;;;;;;;13.75;100.00;99410.31;5095716;28;19974;-67
2023/10/24 11:24:45;;;;;;;;;;;;;;;13.79;100.00;99411.75;5095595;28;19923;-67
2023/10/24 11:27:49;;;;;;;;;;;;;;;13.79;100.00;99408.28;5095790;28;20002;-67
2023/10/24 11:30:56;;;;;;;;;;;;;;;13.90;100.00;99402.94;5095353;28;19977;-68
2023/10/24 11:34:01;;;;;;;;;;;;;;;13.93;100.00;99405.31;5095493;28;19923;-66
2023/10/24 11:37:07;;;;;;;;;;;;;;;13.94;100.00;99399.09;5095285;28;19923;-67
2023/10/24 11:40:11;;;;;;;;;;;;;;;13.97;100.00;99390.97;5095492;28;20464;-67
2023/10/24 11:43:17;;;;;;;;;;;;;;;13.93;100.00;99405.31;5094874;28;19931;-66
2023/10/24 11:46:21;;;;;;;;;;;;;;;13.70;100.00;99396.75;5095230;28;20414;-66
2023/10/24 11:49:31;;;;;;;;;;;;;;;13.67;100.00;99395.19;5094405;28;19931;-66
2023/10/24 11:52:34;;;;;;;;;;;;;;;13.48;100.00;99395.88;5094620;28;19946;-66
2023/10/24 11:55:38;;;;;;;;;;;;;;;13.48;100.00;99395.06;5095056;28;20046;-68
2023/10/24 11:58:42;;;;;;;;;;;;;;;13.38;99.63;99399.41;5095134;28;20244;-65
2023/10/24 12:01:46;;;;;;;;;;;;;;;13.40;100.00;99386.97;5093886;28;19927;-66
2023/10/24 12:04:50;;;;;;;;;;;;;;;13.57;100.00;99389.03;5094346;28;19935;-67
2023/10/24 12:07:57;;;;;;;;;;;;;;;13.59;100.00;99389.75;5093434;28;19923;-67
2023/10/24 12:11:00;;;;;;;;;;;;;;;13.85;100.00;99392.00;5093129;28;20417;-68
2023/10/24 12:14:03;;;;;;;;;;;;;;;13.80;100.00;99388.94;5094765;28;19927;-66
2023/10/24 12:17:07;;;;;;;;;;;;;;;13.92;99.30;99387.91;5094005;28;20287;-67
2023/10/24 12:20:11;;;;;;;;;;;;;;;13.96;98.93;99384.88;5094432;28;20322;-67
2023/10/24 12:23:16;;;;;;;;;;;;;;;14.03;99.26;99377.31;5094522;28;19927;-71
2023/10/24 12:26:20;;;;;;;;;;;;;;;14.25;98.01;99372.84;5093935;28;20356;-66
2023/10/24 12:29:24;;;;;;;;;;;;;;;14.29;100.00;99374.25;5094104;28;19983;-68
2023/10/24 12:32:28;;;;;;;;;;;;;;;14.15;100.00;99385.94;5094456;28;20353;-66
2023/10/24 12:35:31;;;;;;;;;;;;;;;14.00;99.10;99385.44;5094109;28;19963;-67
2023/10/24 12:38:37;;;;;;;;;;;;;;;13.94;96.79;99380.69;5094258;28;19942;-66
2023/10/24 12:41:40;;;;;;;;;;;;;;;13.97;99.83;99375.19;5094075;28;19984;-64
2023/10/24 12:44:44;;;;;;;;;;;;;;;13.85;98.95;99378.88;5094178;28;19924;-66
2023/10/24 12:47:48;;;;;;;;;;;;;;;13.86;100.00;99377.91;5093920;28;20026;-70
2023/10/24 12:50:51;;;;;;;;;;;;;;;14.04;100.00;99375.50;5094369;28;20077;-78
2023/10/24 12:53:55;;;;;;;;;;;;;;;14.02;100.00;99373.00;5093818;28;19927;-66
2023/10/24 12:56:58;;;;;;;;;;;;;;;14.01;100.00;99373.13;5093570;28;19972;-66
2023/10/24 13:00:02;;;;;;;;;;;;;;;13.95;100.00;99364.00;5093326;28;20010;-74
2023/10/24 13:03:06;;;;;;;;;;;;;;;13.86;100.00;99360.34;5093971;28;19926;-66
2023/10/24 13:06:09;;;;;;;;;;;;;;;13.67;100.00;99363.69;5093742;28;19922;-66
2023/10/24 13:09:16;;;;;;;;;;;;;;;13.68;100.00;99362.72;5094020;28;19962;-66
2023/10/24 13:12:19;;;;;;;;;;;;;;;13.58;100.00;99359.19;5094085;28;20334;-66
2023/10/24 13:15:22;;;;;;;;;;;;;;;13.54;100.00;99360.41;5093325;28;19946;-66
2023/10/24 13:18:25;;;;;;;;;;;;;;;13.70;100.00;99366.03;5092449;28;19993;-66
2023/10/24 13:21:29;;;;;;;;;;;;;;;13.80;100.00;99362.66;5092977;28;19977;-66
2023/10/24 13:24:32;;;;;;;;;;;;;;;13.84;100.00;99369.31;5093204;28;19923;-65
2023/10/24 13:27:36;;;;;;;;;;;;;;;13.78;100.00;99364.56;5093402;28;20406;-66
2023/10/24 13:30:39;;;;;;;;;;;;;;;13.80;100.00;99367.91;5093133;28;19927;-66
2023/10/24 13:33:45;;;;;;;;;;;;;;;13.73;100.00;99368.41;5093383;28;19938;-65
2023/10/24 13:36:48;;;;;;;;;;;;;;;13.51;100.00;99363.28;5092341;28;19969;-65
2023/10/24 13:39:51;;;;;;;;;;;;;;;13.65;100.00;99362.97;5092933;28;20033;-65
2023/10/24 13:42:54;;;;;;;;;;;;;;;13.61;100.00;99385.19;5093329;28;19953;-65
2023/10/24 13:45:58;;;;;;;;;;;;;;;13.58;100.00;99395.13;5092934;28;19923;-64
2023/10/24 13:49:01;;;;;;;;;;;;;;;13.32;100.00;99389.41;5092214;28;20015;-65
2023/10/24 13:52:04;;;;;;;;;;;;;;;13.09;100.00;99389.44;5092108;28;20424;-64
2023/10/24 13:55:07;;;;;;;;;;;;;;;13.26;100.00;99381.06;5092145;28;20330;-66
2023/10/24 13:58:10;;;;;;;;;;;;;;;13.03;100.00;99367.16;5092375;28;19922;-66
2023/10/24 14:01:14;;;;;;;;;;;;;;;13.05;100.00;99390.66;5092394;28;19927;-65
2023/10/24 14:04:17;;;;;;;;;;;;;;;13.07;99.55;99380.03;5091790;28;19963;-66
2023/10/24 14:07:20;;;;;;;;;;;;;;;12.91;98.27;99380.41;5091981;28;19923;-65
2023/10/24 14:10:23;;;;;;;;;;;;;;;12.80;99.26;99383.91;5092238;28;19931;-66
2023/10/24 14:13:26;;;;;;;;;;;;;;;12.95;99.40;99394.94;5092148;28;19988;-66
2023/10/24 14:16:30;;;;;;;;;;;;;;;13.05;99.50;99390.66;5092243;28;19985;-65
2023/10/24 14:19:35;;;;;;;;;;;;;;;13.12;100.00;99393.63;5092021;28;20028;-66
2023/10/24 14:22:40;;;;;;;;;;;;;;;13.21;100.00;99393.72;5092060;28;19927;-66
2023/10/24 14:25:43;;;;;;;;;;;;;;;13.18;100.00;99401.81;5092224;28;20343;-66
2023/10/24 14:28:47;;;;;;;;;;;;;;;13.36;100.00;99399.50;5092240;28;19923;-66
2023/10/24 14:31:51;;;;;;;;;;;;;;;13.55;100.00;99406.72;5092041;28;19927;-66
2023/10/24 14:34:54;;;;;;;;;;;;;;;13.83;100.00;99401.81;5091347;28;19969;-66
2023/10/24 14:37:57;;;;;;;;;;;;;;;14.11;100.00;99401.16;5091948;28;19984;-66
2023/10/24 14:41:01;;;;;;;;;;;;;;;14.27;100.00;99408.56;5090971;28;19966;-66
2023/10/24 14:44:05;;;;;;;;;;;;;;;14.29;100.00;99404.00;5092232;28;20326;-66
2023/10/24 14:47:09;;;;;;;;;;;;;;;14.34;99.85;99395.72;5091499;28;19923;-66
2023/10/24 14:50:12;;;;;;;;;;;;;;;14.14;100.00;99400.91;5092123;28;19961;-74
2023/10/24 14:53:16;;;;;;;;;;;;;;;13.84;100.00;99395.59;5092162;28;19935;-75
2023/10/24 14:56:19;;;;;;;;;;;;;;;13.86;100.00;99404.19;5092058;28;20325;-73
2023/10/24 14:59:23;;;;;;;;;;;;;;;13.84;100.00;99400.84;5092483;28;19923;-69
2023/10/24 15:02:27;;;;;;;;;;;;;;;13.69;100.00;99395.09;5091928;28;19927;-73
2023/10/24 15:05:31;;;;;;;;;;;;;;;13.53;100.00;99405.16;5092248;28;19927;-67
2023/10/24 15:08:34;;;;;;;;;;;;;;;13.48;100.00;99402.94;5091601;28;19970;-67
2023/10/24 15:11:37;;;;;;;;;;;;;;;13.30;100.00;99404.44;5091825;28;19942;-66
2023/10/24 15:14:41;;;;;;;;;;;;;;;13.02;100.00;99404.84;5091849;28;19969;-72
2023/10/24 15:17:45;;;;;;;;;;;;;;;13.00;100.00;99398.88;5092068;28;19966;-69
2023/10/24 15:20:47;;;;;;;;;;;;;;;12.74;100.00;99405.38;5091644;28;20008;-68
2023/10/24 15:23:50;;;;;;;;;;;;;;;12.67;100.00;99396.34;5091677;28;19968;-68
2023/10/24 15:26:54;;;;;;;;;;;;;;;12.61;100.00;99410.75;5092126;28;19923;-68
2023/10/24 15:29:57;;;;;;;;;;;;;;;12.58;100.00;99411.00;5091350;28;19927;-66
2023/10/24 15:33:00;;;;;;;;;;;;;;;12.71;100.00;99408.25;5078731;28;19943;-66
2023/10/24 15:36:04;;;;;;;;;;;;;;;12.72;100.00;99410.72;5089155;28;19926;-65
2023/10/24 15:39:08;;;;;;;;;;;;;;;12.63;100.00;99408.84;5089523;28;20362;-66
2023/10/24 15:42:13;;;;;;;;;;;;;;;12.63;100.00;99408.84;5090008;28;19964;-66
2023/10/24 15:45:16;;;;;;;;;;;;;;;12.57;100.00;99410.16;5092650;28;19971;-68
2023/10/24 15:48:19;;;;;;;;;;;;;;;12.50;100.00;99408.13;5094718;28;20337;-66